createdAt,value
2018-03-06T00:00:24.427Z,982.51
2018-03-06T00:01:30.945Z,982.52
2018-03-06T00:02:35.463Z,982.51
2018-03-06T00:03:41.975Z,982.52
2018-03-06T00:04:46.476Z,982.50
2018-03-06T00:05:51.963Z,982.49
2018-03-06T00:06:58.520Z,982.47
2018-03-06T00:08:02.997Z,982.49
2018-03-06T00:09:09.513Z,982.47
2018-03-06T00:10:14.022Z,982.43
2018-03-06T00:11:19.515Z,982.48
2018-03-06T00:12:26.045Z,982.48
2018-03-06T00:13:30.528Z,982.49
2018-03-06T00:14:37.063Z,982.47
2018-03-06T00:15:41.548Z,982.45
2018-03-06T00:16:47.144Z,982.45
2018-03-06T00:17:53.570Z,982.48
2018-03-06T00:18:58.066Z,982.46
2018-03-06T00:20:04.597Z,982.45
2018-03-06T00:21:09.088Z,982.43
2018-03-06T00:22:14.602Z,982.39
2018-03-06T00:23:21.103Z,982.42
2018-03-06T00:24:25.610Z,982.41
2018-03-06T00:25:32.119Z,982.41
2018-03-06T00:26:36.767Z,982.44
2018-03-06T00:27:42.145Z,982.42
2018-03-06T00:28:48.654Z,982.37
2018-03-06T00:29:53.152Z,982.41
2018-03-06T00:30:59.669Z,982.40
2018-03-06T00:32:04.163Z,982.41
2018-03-06T00:33:09.698Z,982.42
2018-03-06T00:34:16.185Z,982.45
2018-03-06T00:35:20.673Z,982.44
2018-03-06T00:36:27.199Z,982.45
2018-03-06T00:37:31.707Z,982.43
2018-03-06T00:38:37.197Z,982.43
2018-03-06T00:39:43.731Z,982.39
2018-03-06T00:40:48.246Z,982.38
2018-03-06T00:41:54.732Z,982.39
2018-03-06T00:42:59.248Z,982.40
2018-03-06T00:44:04.739Z,982.39
2018-03-06T00:45:11.258Z,982.36
2018-03-06T00:46:15.756Z,982.36
2018-03-06T00:47:22.288Z,982.32
2018-03-06T00:48:26.778Z,982.29
2018-03-06T00:49:32.296Z,982.26
2018-03-06T00:50:38.807Z,982.25
2018-03-06T00:51:43.293Z,982.25
2018-03-06T00:52:49.813Z,982.28
2018-03-06T00:53:54.345Z,982.29
2018-03-06T00:54:59.824Z,982.28
2018-03-06T00:56:06.347Z,982.26
2018-03-06T00:57:10.845Z,982.29
2018-03-06T00:58:17.352Z,982.23
2018-03-06T00:59:21.850Z,982.22
2018-03-06T01:00:27.368Z,982.20
2018-03-06T01:01:33.878Z,982.20
2018-03-06T01:02:38.367Z,982.21
2018-03-06T01:03:44.977Z,982.19
2018-03-06T01:04:49.385Z,982.16
2018-03-06T01:05:54.903Z,982.14
2018-03-06T01:07:01.404Z,982.14
2018-03-06T01:08:05.947Z,982.11
2018-03-06T01:09:12.432Z,982.08
2018-03-06T01:10:16.924Z,982.04
2018-03-06T01:11:22.432Z,982.10
2018-03-06T01:12:28.947Z,982.07
2018-03-06T01:13:33.443Z,982.03
2018-03-06T01:14:39.960Z,982.05
2018-03-06T01:15:44.469Z,981.99
2018-03-06T01:16:49.956Z,981.98
2018-03-06T01:17:56.486Z,981.95
2018-03-06T01:19:00.974Z,981.96
2018-03-06T01:20:07.506Z,981.92
2018-03-06T01:21:11.994Z,981.91
2018-03-06T01:22:17.516Z,981.87
2018-03-06T01:23:24.013Z,981.90
2018-03-06T01:24:28.515Z,981.85
2018-03-06T01:25:35.081Z,981.86
2018-03-06T01:26:39.539Z,981.83
2018-03-06T01:27:45.041Z,981.84
2018-03-06T01:28:51.543Z,981.81
2018-03-06T01:29:56.049Z,981.77
2018-03-06T01:31:02.571Z,981.75
2018-03-06T01:32:07.078Z,981.74
2018-03-06T01:33:12.569Z,981.77
2018-03-06T01:34:19.095Z,981.73
2018-03-06T01:35:23.588Z,981.70
2018-03-06T01:36:30.101Z,981.69
2018-03-06T01:37:34.624Z,981.68
2018-03-06T01:38:40.097Z,981.66
2018-03-06T01:39:46.616Z,981.65
2018-03-06T01:40:51.119Z,981.68
2018-03-06T01:41:57.634Z,981.60
2018-03-06T01:43:02.130Z,981.60
2018-03-06T01:44:07.653Z,981.56
2018-03-06T01:45:14.207Z,981.60
2018-03-06T01:46:18.666Z,981.52
2018-03-06T01:47:25.164Z,981.52
2018-03-06T01:48:29.679Z,981.47
2018-03-06T01:49:35.224Z,981.47
2018-03-06T01:50:41.689Z,981.52
2018-03-06T01:51:46.186Z,981.48
2018-03-06T01:52:52.699Z,981.49
2018-03-06T01:53:57.205Z,981.53
2018-03-06T01:55:02.711Z,981.64
2018-03-06T01:56:09.229Z,981.63
2018-03-06T01:57:13.733Z,981.59
2018-03-06T01:58:20.260Z,981.51
2018-03-06T01:59:24.748Z,981.55
2018-03-06T02:00:30.241Z,981.54
2018-03-06T02:01:36.766Z,981.53
2018-03-06T02:02:41.261Z,981.49
2018-03-06T02:03:47.780Z,981.40
2018-03-06T02:04:52.275Z,981.41
2018-03-06T02:05:57.801Z,981.45
2018-03-06T02:07:04.308Z,981.43
2018-03-06T02:08:08.794Z,981.42
2018-03-06T02:09:15.311Z,981.41
2018-03-06T02:10:19.806Z,981.41
2018-03-06T02:11:25.308Z,981.40
2018-03-06T02:12:31.841Z,981.41
2018-03-06T02:13:36.334Z,981.41
2018-03-06T02:14:42.936Z,981.43
2018-03-06T02:15:47.341Z,981.45
2018-03-06T02:16:52.871Z,981.39
2018-03-06T02:17:59.381Z,981.46
2018-03-06T02:19:03.861Z,981.40
2018-03-06T02:20:10.387Z,981.37
2018-03-06T02:21:14.893Z,981.42
2018-03-06T02:22:20.398Z,981.34
2018-03-06T02:23:26.909Z,981.33
2018-03-06T02:24:31.416Z,981.32
2018-03-06T02:25:37.953Z,981.27
2018-03-06T02:26:42.433Z,981.23
2018-03-06T02:27:47.935Z,981.23
2018-03-06T02:28:54.444Z,981.19
2018-03-06T02:29:58.937Z,981.21
2018-03-06T02:31:05.514Z,981.23
2018-03-06T02:32:09.993Z,981.23
2018-03-06T02:33:15.458Z,981.24
2018-03-06T02:34:21.985Z,981.25
2018-03-06T02:35:26.471Z,981.24
2018-03-06T02:36:33.002Z,981.22
2018-03-06T02:37:37.495Z,981.19
2018-03-06T02:38:42.992Z,981.18
2018-03-06T02:39:49.508Z,981.19
2018-03-06T02:40:54.015Z,981.12
2018-03-06T02:42:00.525Z,981.13
2018-03-06T02:43:05.025Z,981.12
2018-03-06T02:44:10.538Z,981.14
2018-03-06T02:45:17.053Z,981.11
2018-03-06T02:46:21.565Z,981.09
2018-03-06T02:47:28.064Z,981.16
2018-03-06T02:48:32.557Z,981.15
2018-03-06T02:49:38.064Z,981.13
2018-03-06T02:50:44.583Z,981.14
2018-03-06T02:51:49.081Z,981.13
2018-03-06T02:52:55.596Z,981.08
2018-03-06T02:54:00.098Z,981.07
2018-03-06T02:55:05.611Z,981.09
2018-03-06T02:56:12.132Z,981.07
2018-03-06T02:57:16.618Z,981.09
2018-03-06T02:58:23.145Z,981.10
2018-03-06T02:59:27.623Z,981.08
2018-03-06T03:00:33.142Z,981.03
2018-03-06T03:01:39.652Z,981.09
2018-03-06T03:02:44.156Z,981.07
2018-03-06T03:03:50.664Z,981.09
2018-03-06T03:04:55.184Z,981.05
2018-03-06T03:06:00.668Z,981.08
2018-03-06T03:07:07.203Z,981.06
2018-03-06T03:08:11.700Z,981.03
2018-03-06T03:09:18.219Z,981.02
2018-03-06T03:10:22.704Z,981.04
2018-03-06T03:11:28.214Z,981.01
2018-03-06T03:12:34.727Z,981.00
2018-03-06T03:13:39.231Z,981.01
2018-03-06T03:14:45.734Z,981.04
2018-03-06T03:15:50.251Z,981.01
2018-03-06T03:16:55.749Z,980.98
2018-03-06T03:18:02.254Z,980.94
2018-03-06T03:19:06.762Z,981.02
2018-03-06T03:20:13.276Z,980.95
2018-03-06T03:21:17.786Z,980.95
2018-03-06T03:22:23.280Z,980.99
2018-03-06T03:23:29.809Z,980.95
2018-03-06T03:24:34.292Z,980.96
2018-03-06T03:25:40.816Z,980.96
2018-03-06T03:26:45.303Z,980.97
2018-03-06T03:27:50.816Z,980.92
2018-03-06T03:28:57.326Z,980.95
2018-03-06T03:30:01.833Z,980.91
2018-03-06T03:31:08.346Z,980.90
2018-03-06T03:32:12.846Z,980.87
2018-03-06T03:33:18.344Z,980.91
2018-03-06T03:34:24.870Z,980.89
2018-03-06T03:35:29.375Z,980.88
2018-03-06T03:36:35.872Z,980.88
2018-03-06T03:37:40.373Z,980.83
2018-03-06T03:38:45.879Z,980.84
2018-03-06T03:39:52.400Z,980.85
2018-03-06T03:40:56.903Z,980.84
2018-03-06T03:42:03.424Z,980.81
2018-03-06T03:43:07.915Z,980.81
2018-03-06T03:44:13.418Z,980.78
2018-03-06T03:45:19.950Z,980.81
2018-03-06T03:46:24.434Z,980.82
2018-03-06T03:47:30.951Z,980.81
2018-03-06T03:48:35.442Z,980.83
2018-03-06T03:49:40.953Z,980.83
2018-03-06T03:50:47.480Z,980.84
2018-03-06T03:51:51.967Z,980.86
2018-03-06T03:52:58.480Z,980.89
2018-03-06T03:54:02.978Z,980.90
2018-03-06T03:55:08.483Z,980.96
2018-03-06T03:56:15.002Z,980.98
2018-03-06T03:57:19.493Z,980.96
2018-03-06T03:58:26.034Z,980.99
2018-03-06T03:59:30.515Z,980.95
2018-03-06T04:00:36.018Z,980.96
2018-03-06T04:01:42.548Z,980.93
2018-03-06T04:02:47.030Z,980.93
2018-03-06T04:03:53.565Z,980.95
2018-03-06T04:04:58.049Z,980.93
2018-03-06T04:06:03.548Z,980.96
2018-03-06T04:07:10.071Z,980.93
2018-03-06T04:08:14.566Z,980.87
2018-03-06T04:09:21.087Z,980.93
2018-03-06T04:10:25.577Z,980.91
2018-03-06T04:11:31.078Z,980.96
2018-03-06T04:12:37.608Z,980.93
2018-03-06T04:13:42.098Z,980.93
2018-03-06T04:14:48.620Z,980.91
2018-03-06T04:15:53.110Z,980.88
2018-03-06T04:16:58.619Z,980.88
2018-03-06T04:18:05.142Z,980.85
2018-03-06T04:19:09.630Z,980.85
2018-03-06T04:20:16.148Z,980.89
2018-03-06T04:21:20.646Z,980.89
2018-03-06T04:22:26.151Z,980.91
2018-03-06T04:23:32.679Z,980.90
2018-03-06T04:24:37.165Z,980.90
2018-03-06T04:25:43.687Z,980.92
2018-03-06T04:26:48.181Z,980.91
2018-03-06T04:27:53.694Z,980.93
2018-03-06T04:29:00.218Z,980.91
2018-03-06T04:30:04.699Z,980.89
2018-03-06T04:31:11.222Z,980.96
2018-03-06T04:32:15.713Z,980.89
2018-03-06T04:33:21.220Z,980.92
2018-03-06T04:34:27.740Z,980.93
2018-03-06T04:35:32.240Z,980.94
2018-03-06T04:36:38.745Z,980.87
2018-03-06T04:37:43.240Z,980.82
2018-03-06T04:38:48.764Z,980.76
2018-03-06T04:39:55.268Z,980.79
2018-03-06T04:40:59.765Z,980.79
2018-03-06T04:42:06.290Z,980.75
2018-03-06T04:43:10.784Z,980.79
2018-03-06T04:44:16.289Z,980.76
2018-03-06T04:45:22.820Z,980.79
2018-03-06T04:46:27.303Z,980.74
2018-03-06T04:47:33.819Z,980.74
2018-03-06T04:48:38.311Z,980.78
2018-03-06T04:49:43.836Z,980.76
2018-03-06T04:50:50.332Z,980.74
2018-03-06T04:51:54.844Z,980.78
2018-03-06T04:53:01.351Z,980.73
2018-03-06T04:54:05.859Z,980.73
2018-03-06T04:55:11.355Z,980.81
2018-03-06T04:56:17.875Z,980.77
2018-03-06T04:57:22.371Z,980.77
2018-03-06T04:58:28.882Z,980.81
2018-03-06T04:59:33.368Z,980.79
2018-03-06T05:00:38.884Z,980.75
2018-03-06T05:01:45.391Z,980.77
2018-03-06T05:02:49.901Z,980.76
2018-03-06T05:03:56.414Z,980.76
2018-03-06T05:05:00.911Z,980.78
2018-03-06T05:06:06.412Z,980.74
2018-03-06T05:07:12.955Z,980.72
2018-03-06T05:08:17.424Z,980.79
2018-03-06T05:09:23.940Z,980.79
2018-03-06T05:10:28.449Z,980.79
2018-03-06T05:11:33.955Z,980.80
2018-03-06T05:12:40.473Z,980.79
2018-03-06T05:13:44.955Z,980.75
2018-03-06T05:14:51.478Z,980.72
2018-03-06T05:15:55.989Z,980.77
2018-03-06T05:17:01.476Z,980.75
2018-03-06T05:18:07.997Z,980.77
2018-03-06T05:19:12.494Z,980.73
2018-03-06T05:20:19.011Z,980.77
2018-03-06T05:21:23.515Z,980.80
2018-03-06T05:22:29.016Z,980.79
2018-03-06T05:23:35.570Z,980.75
2018-03-06T05:24:40.075Z,980.76
2018-03-06T05:25:46.543Z,980.74
2018-03-06T05:26:51.049Z,980.77
2018-03-06T05:27:56.572Z,980.76
2018-03-06T05:29:03.073Z,980.74
2018-03-06T05:30:07.557Z,980.77
2018-03-06T05:31:14.086Z,980.73
2018-03-06T05:32:18.566Z,980.76
2018-03-06T05:33:24.084Z,980.77
2018-03-06T05:34:30.585Z,980.78
2018-03-06T05:35:35.108Z,980.79
2018-03-06T05:36:41.611Z,980.75
2018-03-06T05:37:46.095Z,980.73
2018-03-06T05:38:51.609Z,980.74
2018-03-06T05:39:58.135Z,980.78
2018-03-06T05:41:02.617Z,980.76
2018-03-06T05:42:09.148Z,980.77
2018-03-06T05:43:13.624Z,980.79
2018-03-06T05:44:19.155Z,980.80
2018-03-06T05:45:25.659Z,980.80
2018-03-06T05:46:30.155Z,980.80
2018-03-06T05:47:36.686Z,980.83
2018-03-06T05:48:41.171Z,980.82
2018-03-06T05:49:46.661Z,980.85
2018-03-06T05:50:53.191Z,980.84
2018-03-06T05:51:57.683Z,980.86
2018-03-06T05:53:04.201Z,980.87
2018-03-06T05:54:08.699Z,980.89
2018-03-06T05:55:14.199Z,980.92
2018-03-06T05:56:20.720Z,980.87
2018-03-06T05:57:25.223Z,980.86
2018-03-06T05:58:31.730Z,980.82
2018-03-06T05:59:36.229Z,980.77
2018-03-06T06:00:41.737Z,980.77
2018-03-06T06:01:48.247Z,980.77
2018-03-06T06:02:52.748Z,980.79
2018-03-06T06:03:59.262Z,980.80
2018-03-06T06:05:03.763Z,980.75
2018-03-06T06:06:09.270Z,980.81
2018-03-06T06:07:15.784Z,980.80
2018-03-06T06:08:20.286Z,980.80
2018-03-06T06:09:26.838Z,980.80
2018-03-06T06:10:31.301Z,980.88
2018-03-06T06:11:36.812Z,980.85
2018-03-06T06:12:43.340Z,980.83
2018-03-06T06:13:47.916Z,980.87
2018-03-06T06:14:54.334Z,980.88
2018-03-06T06:15:58.836Z,980.91
2018-03-06T06:17:04.339Z,980.88
2018-03-06T06:18:10.845Z,980.88
2018-03-06T06:19:15.354Z,980.85
2018-03-06T06:20:21.867Z,980.89
2018-03-06T06:21:26.362Z,980.89
2018-03-06T06:22:31.868Z,980.92
2018-03-06T06:23:38.383Z,980.93
2018-03-06T06:24:42.883Z,980.93
2018-03-06T06:25:49.396Z,980.93
2018-03-06T06:26:53.898Z,980.93
2018-03-06T06:27:59.399Z,980.96
2018-03-06T06:29:05.924Z,980.97
2018-03-06T06:30:10.429Z,980.97
2018-03-06T06:31:16.936Z,980.97
2018-03-06T06:32:21.424Z,980.97
2018-03-06T06:33:26.935Z,980.95
2018-03-06T06:34:33.454Z,981.00
2018-03-06T06:35:37.949Z,980.99
2018-03-06T06:36:44.464Z,980.97
2018-03-06T06:37:48.955Z,980.94
2018-03-06T06:38:54.477Z,980.94
2018-03-06T06:40:00.984Z,980.91
2018-03-06T06:41:05.488Z,980.92
2018-03-06T06:42:12.003Z,980.95
2018-03-06T06:43:16.495Z,980.95
2018-03-06T06:44:22.003Z,980.98
2018-03-06T06:45:28.524Z,980.90
2018-03-06T06:46:33.011Z,980.97
2018-03-06T06:47:39.526Z,980.98
2018-03-06T06:48:44.034Z,980.99
2018-03-06T06:49:49.533Z,981.00
2018-03-06T06:50:56.063Z,981.00
2018-03-06T06:52:00.571Z,980.99
2018-03-06T06:53:07.071Z,980.99
2018-03-06T06:54:11.578Z,980.95
2018-03-06T06:55:17.083Z,980.98
2018-03-06T06:56:23.591Z,980.94
2018-03-06T06:57:28.083Z,980.98
2018-03-06T06:58:34.600Z,980.96
2018-03-06T06:59:39.118Z,980.94
2018-03-06T07:00:44.611Z,980.95
2018-03-06T07:01:51.153Z,980.93
2018-03-06T07:02:55.620Z,980.93
2018-03-06T07:04:02.205Z,980.95
2018-03-06T07:05:06.642Z,980.91
2018-03-06T07:06:12.151Z,980.95
2018-03-06T07:07:18.669Z,980.93
2018-03-06T07:08:23.155Z,980.92
2018-03-06T07:09:29.671Z,980.89
2018-03-06T07:10:34.174Z,980.90
2018-03-06T07:11:39.669Z,980.87
2018-03-06T07:12:46.194Z,980.92
2018-03-06T07:13:50.688Z,980.92
2018-03-06T07:14:57.215Z,980.95
2018-03-06T07:16:01.707Z,980.92
2018-03-06T07:17:07.210Z,980.94
2018-03-06T07:18:13.740Z,980.87
2018-03-06T07:19:18.225Z,980.89
2018-03-06T07:20:24.761Z,980.94
2018-03-06T07:21:29.245Z,980.94
2018-03-06T07:22:34.748Z,980.98
2018-03-06T07:23:41.298Z,980.97
2018-03-06T07:24:45.766Z,980.96
2018-03-06T07:25:52.282Z,981.01
2018-03-06T07:26:56.774Z,980.95
2018-03-06T07:28:02.302Z,980.97
2018-03-06T07:29:08.811Z,981.01
2018-03-06T07:30:13.304Z,980.95
2018-03-06T07:31:19.855Z,980.96
2018-03-06T07:32:24.311Z,980.98
2018-03-06T07:33:29.833Z,980.98
2018-03-06T07:34:36.348Z,980.98
2018-03-06T07:35:40.856Z,980.99
2018-03-06T07:36:47.363Z,980.97
2018-03-06T07:37:51.945Z,980.97
2018-03-06T07:38:57.361Z,981.02
2018-03-06T07:40:03.881Z,980.98
2018-03-06T07:41:08.374Z,980.98
2018-03-06T07:42:14.899Z,980.94
2018-03-06T07:43:19.389Z,980.97
2018-03-06T07:44:24.906Z,980.96
2018-03-06T07:45:31.420Z,981.00
2018-03-06T07:46:35.910Z,980.95
2018-03-06T07:47:42.431Z,980.98
2018-03-06T07:48:46.930Z,980.98
2018-03-06T07:49:52.439Z,981.00
2018-03-06T07:50:58.952Z,981.03
2018-03-06T07:52:03.459Z,980.99
2018-03-06T07:53:09.975Z,981.01
2018-03-06T07:54:14.475Z,981.01
2018-03-06T07:55:20.005Z,980.99
2018-03-06T07:56:26.495Z,981.02
2018-03-06T07:57:31.007Z,981.00
2018-03-06T07:58:37.525Z,980.99
2018-03-06T07:59:42.027Z,981.01
2018-03-06T08:00:47.513Z,980.94
2018-03-06T08:01:54.034Z,980.93
2018-03-06T08:02:58.542Z,980.92
2018-03-06T08:04:05.063Z,980.95
2018-03-06T08:05:09.557Z,980.90
2018-03-06T08:06:15.070Z,980.89
2018-03-06T08:07:21.590Z,980.91
2018-03-06T08:08:26.087Z,980.90
2018-03-06T08:09:32.611Z,980.90
2018-03-06T08:10:37.118Z,980.94
2018-03-06T08:11:42.611Z,980.90
2018-03-06T08:12:49.136Z,980.93
2018-03-06T08:13:53.648Z,980.90
2018-03-06T08:15:00.154Z,980.89
2018-03-06T08:16:04.665Z,980.89
2018-03-06T08:17:10.183Z,980.89
2018-03-06T08:18:16.678Z,980.84
2018-03-06T08:19:21.185Z,980.83
2018-03-06T08:20:27.691Z,980.85
2018-03-06T08:21:32.199Z,980.87
2018-03-06T08:22:37.721Z,980.86
2018-03-06T08:23:44.233Z,980.83
2018-03-06T08:24:48.730Z,980.85
2018-03-06T08:25:55.252Z,980.80
2018-03-06T08:26:59.763Z,980.83
2018-03-06T08:28:05.258Z,980.84
2018-03-06T08:29:11.804Z,980.82
2018-03-06T08:30:16.348Z,980.87
2018-03-06T08:31:22.801Z,980.84
2018-03-06T08:32:27.317Z,980.85
2018-03-06T08:33:32.817Z,980.84
2018-03-06T08:34:39.332Z,980.80
2018-03-06T08:35:43.841Z,980.85
2018-03-06T08:36:50.354Z,980.90
2018-03-06T08:37:54.846Z,980.86
2018-03-06T08:39:00.370Z,980.86
2018-03-06T08:40:07.000Z,980.86
2018-03-06T08:41:11.402Z,980.81
2018-03-06T08:42:17.901Z,980.83
2018-03-06T08:43:22.420Z,980.79
2018-03-06T08:44:27.921Z,980.79
2018-03-06T08:45:34.466Z,980.78
2018-03-06T08:46:38.943Z,980.74
2018-03-06T08:47:45.457Z,980.81
2018-03-06T08:48:49.960Z,980.80
2018-03-06T08:49:55.471Z,980.81
2018-03-06T08:51:01.983Z,980.80
2018-03-06T08:52:06.478Z,980.77
2018-03-06T08:53:13.002Z,980.80
2018-03-06T08:54:17.511Z,980.81
2018-03-06T08:55:23.023Z,980.78
2018-03-06T08:56:29.541Z,980.81
2018-03-06T08:57:34.038Z,980.80
2018-03-06T08:58:40.554Z,980.77
2018-03-06T08:59:45.070Z,980.80
2018-03-06T09:00:50.695Z,980.81
2018-03-06T09:01:57.107Z,980.80
2018-03-06T09:03:01.608Z,980.81
2018-03-06T09:04:08.119Z,980.82
2018-03-06T09:05:12.615Z,980.82
2018-03-06T09:06:18.136Z,980.80
2018-03-06T09:07:24.651Z,980.80
2018-03-06T09:08:29.153Z,980.80
2018-03-06T09:09:35.668Z,980.80
2018-03-06T09:10:40.189Z,980.82
2018-03-06T09:11:45.689Z,980.79
2018-03-06T09:12:52.204Z,980.77
2018-03-06T09:13:56.722Z,980.79
2018-03-06T09:15:03.228Z,980.80
2018-03-06T09:16:07.736Z,980.81
2018-03-06T09:17:13.250Z,980.80
2018-03-06T09:18:19.762Z,980.77
2018-03-06T09:19:24.273Z,980.77
2018-03-06T09:20:30.804Z,980.82
2018-03-06T09:21:35.298Z,980.81
2018-03-06T09:22:40.789Z,980.83
2018-03-06T09:23:47.325Z,980.83
2018-03-06T09:24:51.813Z,980.84
2018-03-06T09:25:58.352Z,980.82
2018-03-06T09:27:02.851Z,980.81
2018-03-06T09:28:08.349Z,980.78
2018-03-06T09:29:14.879Z,980.80
2018-03-06T09:30:19.386Z,980.80
2018-03-06T09:31:25.908Z,980.79
2018-03-06T09:32:30.397Z,980.76
2018-03-06T09:33:35.960Z,980.78
2018-03-06T09:34:42.448Z,980.82
2018-03-06T09:35:46.938Z,980.82
2018-03-06T09:36:53.503Z,980.74
2018-03-06T09:37:57.972Z,980.82
2018-03-06T09:39:03.472Z,980.81
2018-03-06T09:40:09.997Z,980.80
2018-03-06T09:41:14.506Z,980.79
2018-03-06T09:42:21.017Z,980.77
2018-03-06T09:43:25.525Z,980.76
2018-03-06T09:44:31.037Z,980.74
2018-03-06T09:45:37.558Z,980.79
2018-03-06T09:46:42.055Z,980.81
2018-03-06T09:47:48.588Z,980.76
2018-03-06T09:48:53.083Z,980.74
2018-03-06T09:49:58.594Z,980.74
2018-03-06T09:51:05.112Z,980.76
2018-03-06T09:52:09.625Z,980.67
2018-03-06T09:53:16.145Z,980.71
2018-03-06T09:54:20.661Z,980.71
2018-03-06T09:55:26.156Z,980.72
2018-03-06T09:56:32.679Z,980.75
2018-03-06T09:57:37.204Z,980.71
2018-03-06T09:58:43.711Z,980.73
2018-03-06T09:59:48.202Z,980.66
2018-03-06T10:00:53.736Z,980.67
2018-03-06T10:02:00.279Z,980.68
2018-03-06T10:03:04.797Z,980.68
2018-03-06T10:04:11.271Z,980.71
2018-03-06T10:05:15.780Z,980.68
2018-03-06T10:06:21.297Z,980.69
2018-03-06T10:07:27.798Z,980.74
2018-03-06T10:08:32.323Z,980.72
2018-03-06T10:09:38.847Z,980.72
2018-03-06T10:10:43.335Z,980.70
2018-03-06T10:11:48.851Z,980.74
2018-03-06T10:12:55.375Z,980.69
2018-03-06T10:13:59.876Z,980.72
2018-03-06T10:15:06.399Z,980.73
2018-03-06T10:16:10.909Z,980.69
2018-03-06T10:17:16.448Z,980.71
2018-03-06T10:18:22.938Z,980.68
2018-03-06T10:19:27.459Z,980.68
2018-03-06T10:20:33.978Z,980.69
2018-03-06T10:21:38.467Z,980.66
2018-03-06T10:22:43.990Z,980.68
2018-03-06T10:23:50.569Z,980.67
2018-03-06T10:24:55.033Z,980.66
2018-03-06T10:26:01.543Z,980.69
2018-03-06T10:27:06.051Z,980.69
2018-03-06T10:28:11.554Z,980.69
2018-03-06T10:29:18.076Z,980.69
2018-03-06T10:30:22.583Z,980.69
2018-03-06T10:31:29.108Z,980.72
2018-03-06T10:32:33.603Z,980.71
2018-03-06T10:33:39.118Z,980.71
2018-03-06T10:34:45.650Z,980.67
2018-03-06T10:35:50.145Z,980.69
2018-03-06T10:36:56.678Z,980.71
2018-03-06T10:38:01.185Z,980.72
2018-03-06T10:39:06.694Z,980.74
2018-03-06T10:40:13.212Z,980.69
2018-03-06T10:41:17.732Z,980.75
2018-03-06T10:42:24.245Z,980.71
2018-03-06T10:43:28.750Z,980.72
2018-03-06T10:44:34.263Z,980.74
2018-03-06T10:45:40.802Z,980.70
2018-03-06T10:46:45.289Z,980.75
2018-03-06T10:47:51.828Z,980.74
2018-03-06T10:48:56.321Z,980.72
2018-03-06T10:50:01.841Z,980.76
2018-03-06T10:51:08.355Z,980.73
2018-03-06T10:52:12.901Z,980.74
2018-03-06T10:53:19.405Z,980.73
2018-03-06T10:54:23.891Z,980.76
2018-03-06T10:55:29.417Z,980.74
2018-03-06T10:56:35.944Z,980.70
2018-03-06T10:57:40.443Z,980.74
2018-03-06T10:58:46.960Z,980.74
2018-03-06T10:59:51.462Z,980.71
2018-03-06T11:00:56.990Z,980.71
2018-03-06T11:02:03.503Z,980.71
2018-03-06T11:03:08.017Z,980.71
2018-03-06T11:04:14.526Z,980.73
2018-03-06T11:05:19.033Z,980.71
2018-03-06T11:06:24.643Z,980.72
2018-03-06T11:07:31.074Z,980.69
2018-03-06T11:08:35.596Z,980.72
2018-03-06T11:09:42.108Z,980.73
2018-03-06T11:10:46.612Z,980.72
2018-03-06T11:11:52.142Z,980.65
2018-03-06T11:12:58.647Z,980.66
2018-03-06T11:14:03.166Z,980.66
2018-03-06T11:15:09.672Z,980.63
2018-03-06T11:16:14.228Z,980.66
2018-03-06T11:17:19.712Z,980.62
2018-03-06T11:18:26.287Z,980.64
2018-03-06T11:19:30.764Z,980.69
2018-03-06T11:20:37.272Z,980.68
2018-03-06T11:21:41.866Z,980.66
2018-03-06T11:22:47.340Z,980.68
2018-03-06T11:23:53.821Z,980.66
2018-03-06T11:24:58.293Z,980.71
2018-03-06T11:26:04.818Z,980.73
2018-03-06T11:27:09.370Z,980.70
2018-03-06T11:28:14.835Z,980.71
2018-03-06T11:29:21.376Z,980.71
2018-03-06T11:30:25.873Z,980.71
2018-03-06T11:31:32.388Z,980.66
2018-03-06T11:32:36.903Z,980.66
2018-03-06T11:33:42.422Z,980.62
2018-03-06T11:34:48.946Z,980.67
2018-03-06T11:35:53.451Z,980.63
2018-03-06T11:36:59.972Z,980.65
2018-03-06T11:38:04.475Z,980.63
2018-03-06T11:39:09.981Z,980.60
2018-03-06T11:40:16.519Z,980.61
2018-03-06T11:41:21.019Z,980.61
2018-03-06T11:42:27.554Z,980.60
2018-03-06T11:43:32.045Z,980.62
2018-03-06T11:44:37.547Z,980.60
2018-03-06T11:45:44.081Z,980.59
2018-03-06T11:46:48.591Z,980.61
2018-03-06T11:47:55.122Z,980.58
2018-03-06T11:48:59.614Z,980.62
2018-03-06T11:50:05.131Z,980.61
2018-03-06T11:51:11.653Z,980.58
2018-03-06T11:52:16.163Z,980.60
2018-03-06T11:53:22.698Z,980.63
2018-03-06T11:54:27.184Z,980.61
2018-03-06T11:55:32.703Z,980.55
2018-03-06T11:56:39.322Z,980.59
2018-03-06T11:57:43.757Z,980.60
2018-03-06T11:58:50.259Z,980.56
2018-03-06T11:59:54.766Z,980.60
2018-03-06T12:01:00.296Z,980.57
2018-03-06T12:02:06.885Z,980.61
2018-03-06T12:03:11.340Z,980.63
2018-03-06T12:04:17.877Z,980.59
2018-03-06T12:05:22.363Z,980.58
2018-03-06T12:06:27.880Z,980.59
2018-03-06T12:07:34.402Z,980.57
2018-03-06T12:08:38.904Z,980.60
2018-03-06T12:09:45.417Z,980.59
2018-03-06T12:10:49.917Z,980.58
2018-03-06T12:11:55.436Z,980.55
2018-03-06T12:13:01.974Z,980.56
2018-03-06T12:14:06.473Z,980.56
2018-03-06T12:15:12.993Z,980.53
2018-03-06T12:16:17.502Z,980.55
2018-03-06T12:17:23.016Z,980.53
2018-03-06T12:18:29.548Z,980.54
2018-03-06T12:19:34.043Z,980.53
2018-03-06T12:20:40.576Z,980.56
2018-03-06T12:21:45.087Z,980.53
2018-03-06T12:22:50.584Z,980.50
2018-03-06T12:23:57.124Z,980.50
2018-03-06T12:25:01.615Z,980.54
2018-03-06T12:26:08.181Z,980.51
2018-03-06T12:27:12.684Z,980.51
2018-03-06T12:28:18.184Z,980.50
2018-03-06T12:29:24.823Z,980.50
2018-03-06T12:30:29.260Z,980.50
2018-03-06T12:31:35.734Z,980.47
2018-03-06T12:32:40.351Z,980.49
2018-03-06T12:33:45.751Z,980.48
2018-03-06T12:34:52.313Z,980.46
2018-03-06T12:35:56.801Z,980.48
2018-03-06T12:37:03.314Z,980.45
2018-03-06T12:38:07.813Z,980.48
2018-03-06T12:39:13.355Z,980.48
2018-03-06T12:40:19.890Z,980.44
2018-03-06T12:41:24.366Z,980.44
2018-03-06T12:42:30.897Z,980.45
2018-03-06T12:43:35.415Z,980.46
2018-03-06T12:44:40.905Z,980.45
2018-03-06T12:45:47.489Z,980.45
2018-03-06T12:46:51.941Z,980.45
2018-03-06T12:47:58.482Z,980.47
2018-03-06T12:49:02.978Z,980.49
2018-03-06T12:50:08.507Z,980.43
2018-03-06T12:51:15.030Z,980.44
2018-03-06T12:52:19.539Z,980.46
2018-03-06T12:53:26.054Z,980.44
2018-03-06T12:54:30.572Z,980.45
2018-03-06T12:55:36.084Z,980.44
2018-03-06T12:56:42.604Z,980.43
2018-03-06T12:57:47.108Z,980.41
2018-03-06T12:58:53.648Z,980.45
2018-03-06T12:59:58.175Z,980.40
2018-03-06T13:01:03.665Z,980.39
2018-03-06T13:02:10.208Z,980.34
2018-03-06T13:03:14.729Z,980.35
2018-03-06T13:04:21.230Z,980.31
2018-03-06T13:05:25.737Z,980.32
2018-03-06T13:06:31.251Z,980.34
2018-03-06T13:07:37.790Z,980.36
2018-03-06T13:08:42.297Z,980.36
2018-03-06T13:09:48.836Z,980.35
2018-03-06T13:10:53.328Z,980.34
2018-03-06T13:11:58.840Z,980.39
2018-03-06T13:13:05.369Z,980.36
2018-03-06T13:14:09.881Z,980.34
2018-03-06T13:15:16.413Z,980.39
2018-03-06T13:16:20.932Z,980.37
2018-03-06T13:17:26.430Z,980.40
2018-03-06T13:18:32.965Z,980.40
2018-03-06T13:19:37.489Z,980.38
2018-03-06T13:20:44.005Z,980.36
2018-03-06T13:21:48.570Z,980.32
2018-03-06T13:22:54.028Z,980.36
2018-03-06T13:24:00.549Z,980.34
2018-03-06T13:25:05.061Z,980.38
2018-03-06T13:26:11.595Z,980.36
2018-03-06T13:27:16.125Z,980.38
2018-03-06T13:28:21.625Z,980.35
2018-03-06T13:29:28.199Z,980.39
2018-03-06T13:30:32.679Z,980.37
2018-03-06T13:31:39.205Z,980.37
2018-03-06T13:32:43.711Z,980.33
2018-03-06T13:33:49.268Z,980.37
2018-03-06T13:34:55.767Z,980.37
2018-03-06T13:36:00.250Z,980.35
2018-03-06T13:37:06.810Z,980.39